createdAt,value
2023-04-07T00:02:17.583Z,5.29
2023-04-07T00:04:48.440Z,5.20
2023-04-07T00:07:22.048Z,5.16
2023-04-07T00:09:54.576Z,5.19
2023-04-07T00:12:27.795Z,5.04
2023-04-07T00:14:58.273Z,5.14
2023-04-07T00:17:30.359Z,5.02
2023-04-07T00:20:00.855Z,5.10
2023-04-07T00:22:32.593Z,5.10
2023-04-07T00:25:03.144Z,5.02
2023-04-07T00:27:36.208Z,5.00
2023-04-07T00:30:09.618Z,4.98
2023-04-07T00:32:40.926Z,4.92
2023-04-07T00:35:11.689Z,4.87
2023-04-07T00:37:43.277Z,4.82
2023-04-07T00:40:14.396Z,4.86
2023-04-07T00:42:46.213Z,4.76
2023-04-07T00:45:16.839Z,4.78
2023-04-07T00:47:49.703Z,4.82
2023-04-07T00:50:20.765Z,4.76
2023-04-07T00:52:52.080Z,4.71
2023-04-07T00:55:22.680Z,4.72
2023-04-07T00:57:53.391Z,4.64
2023-04-07T01:00:23.931Z,4.58
2023-04-07T01:03:00.965Z,4.49
2023-04-07T01:05:36.545Z,4.54
2023-04-07T01:08:39.151Z,4.54
2023-04-07T01:11:17.978Z,4.49
2023-04-07T01:13:53.915Z,4.46
2023-04-07T01:16:34.280Z,4.43
2023-04-07T01:19:26.330Z,4.48
2023-04-07T01:21:58.879Z,4.40
2023-04-07T01:25:06.544Z,4.43
2023-04-07T01:27:43.024Z,4.40
2023-04-07T01:30:16.151Z,4.36
2023-04-07T01:32:50.109Z,4.36
2023-04-07T01:35:23.349Z,4.42
2023-04-07T01:37:54.864Z,4.35
2023-04-07T01:40:26.390Z,4.26
2023-04-07T01:42:58.665Z,4.34
2023-04-07T01:45:30.508Z,4.37
2023-04-07T01:48:01.633Z,4.31
2023-04-07T01:50:33.428Z,4.26
2023-04-07T01:53:06.018Z,4.24
2023-04-07T01:55:36.912Z,4.26
2023-04-07T01:58:11.299Z,4.18
2023-04-07T02:00:43.546Z,4.16
2023-04-07T02:03:21.951Z,4.19
2023-04-07T02:05:57.860Z,4.15
2023-04-07T02:08:32.632Z,4.14
2023-04-07T02:11:04.682Z,4.24
2023-04-07T02:13:37.385Z,4.18
2023-04-07T02:16:08.677Z,4.16
2023-04-07T02:18:40.596Z,4.10
2023-04-07T02:21:12.421Z,4.04
2023-04-07T02:23:43.102Z,4.09
2023-04-07T02:26:15.247Z,3.94
2023-04-07T02:28:47.425Z,3.82
2023-04-07T02:31:20.406Z,3.92
2023-04-07T02:33:50.203Z,3.84
2023-04-07T02:36:21.388Z,3.80
2023-04-07T02:38:54.050Z,3.66
2023-04-07T02:41:25.809Z,3.52
2023-04-07T02:43:56.768Z,3.52
2023-04-07T02:46:28.021Z,3.46
2023-04-07T02:48:58.480Z,3.46
2023-04-07T02:51:29.628Z,3.41
2023-04-07T02:54:00.535Z,3.38
2023-04-07T02:56:31.653Z,3.35
2023-04-07T02:59:03.435Z,3.37
2023-04-07T03:01:34.966Z,3.28
2023-04-07T03:04:06.201Z,3.46
2023-04-07T03:06:36.936Z,3.29
2023-04-07T03:09:08.261Z,3.46
2023-04-07T03:11:38.840Z,3.32
2023-04-07T03:14:09.775Z,3.44
2023-04-07T03:16:41.854Z,3.44
2023-04-07T03:19:12.573Z,3.42
2023-04-07T03:21:43.652Z,3.46
2023-04-07T03:24:14.199Z,3.30
2023-04-07T03:26:45.840Z,3.42
2023-04-07T03:29:17.781Z,3.30
2023-04-07T03:31:48.453Z,3.34
2023-04-07T03:34:19.635Z,3.62
2023-04-07T03:36:50.513Z,3.52
2023-04-07T03:39:23.067Z,3.58
2023-04-07T03:41:53.675Z,3.62
2023-04-07T03:44:24.273Z,3.68
2023-04-07T03:46:54.839Z,3.55
2023-04-07T03:49:27.153Z,3.48
2023-04-07T03:51:58.292Z,3.54
2023-04-07T03:54:28.813Z,3.43
2023-04-07T03:56:59.723Z,3.55
2023-04-07T03:59:30.982Z,3.53
2023-04-07T04:02:01.839Z,3.54
2023-04-07T04:04:34.142Z,3.80
2023-04-07T04:07:05.081Z,3.54
2023-04-07T04:09:35.953Z,3.48
2023-04-07T04:12:06.704Z,3.54
2023-04-07T04:14:37.410Z,3.57
2023-04-07T04:17:08.305Z,3.72
2023-04-07T04:19:39.298Z,3.56
2023-04-07T04:22:10.441Z,3.52
2023-04-07T04:24:42.081Z,3.54
2023-04-07T04:27:12.614Z,3.26
2023-04-07T04:29:43.702Z,3.34
2023-04-07T04:32:14.277Z,3.34
2023-04-07T04:34:45.662Z,3.39
2023-04-07T04:37:16.291Z,3.32
2023-04-07T04:39:46.864Z,3.18
2023-04-07T04:42:17.863Z,3.21
2023-04-07T04:44:48.547Z,3.26
2023-04-07T04:47:19.436Z,3.30
2023-04-07T04:49:50.241Z,3.22
2023-04-07T04:52:22.680Z,3.38
2023-04-07T04:54:53.236Z,3.33
2023-04-07T04:57:25.926Z,3.44
2023-04-07T04:59:59.462Z,3.32
2023-04-07T05:02:30.904Z,3.58
2023-04-07T05:05:05.086Z,3.46
2023-04-07T05:07:37.379Z,3.30
2023-04-07T05:10:09.656Z,3.54
2023-04-07T05:12:43.098Z,3.69
2023-04-07T05:15:15.365Z,3.62
2023-04-07T05:17:47.770Z,3.76
2023-04-07T05:20:18.481Z,3.96
2023-04-07T05:22:50.841Z,4.00
2023-04-07T05:25:25.845Z,4.28
2023-04-07T05:27:57.397Z,4.63
2023-04-07T05:30:29.227Z,4.94
2023-04-07T05:32:59.841Z,4.88
2023-04-07T05:35:32.568Z,5.59
2023-04-07T05:38:04.274Z,5.63
2023-04-07T05:40:39.028Z,5.74
2023-04-07T05:43:10.755Z,6.18
2023-04-07T05:45:44.717Z,6.21
2023-04-07T05:48:18.060Z,6.30
2023-04-07T05:50:49.573Z,6.70
2023-04-07T05:53:20.282Z,6.50
2023-04-07T05:55:51.030Z,6.00
2023-04-07T05:58:21.639Z,5.44
2023-04-07T06:00:52.592Z,5.60
2023-04-07T06:03:23.820Z,5.72
2023-04-07T06:05:56.897Z,5.90
2023-04-07T06:08:27.550Z,5.68
2023-04-07T06:10:58.249Z,5.24
2023-04-07T06:13:28.798Z,5.32
2023-04-07T06:15:59.475Z,5.02
2023-04-07T06:18:30.450Z,5.20
2023-04-07T06:21:01.765Z,4.93
2023-04-07T06:23:32.292Z,5.24
2023-04-07T06:26:02.897Z,5.28
2023-04-07T06:28:33.555Z,5.30
2023-04-07T06:31:04.099Z,5.06
2023-04-07T06:33:34.874Z,4.86
2023-04-07T06:36:06.945Z,4.91
2023-04-07T06:38:37.660Z,4.96
2023-04-07T06:41:09.923Z,5.04
2023-04-07T06:43:42.158Z,4.96
2023-04-07T06:46:14.020Z,5.02
2023-04-07T06:48:45.480Z,5.16
2023-04-07T06:51:17.275Z,5.47
2023-04-07T06:53:48.837Z,5.47
2023-04-07T06:56:19.821Z,5.44
2023-04-07T06:58:51.134Z,5.40
2023-04-07T07:01:21.760Z,5.45
2023-04-07T07:03:54.040Z,5.51
2023-04-07T07:06:24.638Z,5.92
2023-04-07T07:08:55.900Z,5.70
2023-04-07T07:11:28.273Z,5.72
2023-04-07T07:14:00.802Z,6.08
2023-04-07T07:16:33.212Z,6.35
2023-04-07T07:19:04.119Z,6.40
2023-04-07T07:21:35.404Z,6.38
2023-04-07T07:24:06.084Z,6.30
2023-04-07T07:26:36.586Z,6.26
2023-04-07T07:29:07.367Z,6.33
2023-04-07T07:31:39.394Z,6.70
2023-04-07T07:34:10.426Z,6.44
2023-04-07T07:36:41.126Z,6.74
2023-04-07T07:39:11.886Z,7.09
2023-04-07T07:41:44.516Z,7.38
2023-04-07T07:44:15.073Z,7.46
2023-04-07T07:46:45.700Z,7.75
2023-04-07T07:49:16.309Z,8.12
2023-04-07T07:51:48.414Z,8.02
2023-04-07T07:54:21.138Z,7.78
2023-04-07T07:56:52.874Z,7.49
2023-04-07T07:59:23.480Z,7.50
2023-04-07T08:01:54.018Z,7.48
2023-04-07T08:04:24.724Z,7.44
2023-04-07T08:06:56.123Z,7.58
2023-04-07T08:09:28.337Z,7.91
2023-04-07T08:12:00.861Z,7.54
2023-04-07T08:14:31.643Z,7.14
2023-04-07T08:17:02.237Z,7.22
2023-04-07T08:19:32.902Z,7.20
2023-04-07T08:22:05.957Z,7.42
2023-04-07T08:24:36.685Z,7.23
2023-04-07T08:27:07.156Z,7.82
2023-04-07T08:29:38.010Z,7.91
2023-04-07T08:32:09.054Z,8.51
2023-04-07T08:34:41.293Z,8.38
2023-04-07T08:37:12.207Z,8.64
2023-04-07T08:39:44.152Z,8.76
2023-04-07T08:42:16.223Z,8.98
2023-04-07T08:44:48.998Z,8.88
2023-04-07T08:47:22.964Z,8.60
2023-04-07T08:49:54.433Z,8.57
2023-04-07T08:52:29.040Z,8.75
2023-04-07T08:55:01.609Z,8.51
2023-04-07T08:57:32.462Z,8.40
2023-04-07T09:00:06.092Z,7.88
2023-04-07T09:02:39.749Z,7.88
2023-04-07T09:05:11.499Z,7.73
2023-04-07T09:07:46.489Z,7.44
2023-04-07T09:10:19.808Z,7.66
2023-04-07T09:12:50.924Z,7.42
2023-04-07T09:15:23.880Z,7.38
2023-04-07T09:17:54.687Z,7.59
2023-04-07T09:20:25.521Z,7.66
2023-04-07T09:22:56.577Z,7.72
2023-04-07T09:25:29.848Z,7.92
2023-04-07T09:28:02.219Z,8.12
2023-04-07T09:30:35.759Z,7.97
2023-04-07T09:33:07.850Z,7.84
2023-04-07T09:35:43.144Z,7.88
2023-04-07T09:38:14.042Z,7.38
2023-04-07T09:40:46.998Z,7.50
2023-04-07T09:43:25.565Z,7.78
2023-04-07T09:45:59.394Z,7.80
2023-04-07T09:48:31.585Z,7.61
2023-04-07T09:51:13.891Z,7.77
2023-04-07T09:53:47.912Z,7.52
2023-04-07T09:56:23.815Z,7.96
2023-04-07T09:58:55.340Z,7.84
2023-04-07T10:01:25.917Z,7.62
2023-04-07T10:03:56.967Z,7.57
2023-04-07T10:06:27.622Z,7.37
2023-04-07T10:08:58.861Z,7.24
2023-04-07T10:11:29.903Z,7.44
2023-04-07T10:14:00.875Z,7.33
2023-04-07T10:16:32.103Z,7.40
2023-04-07T10:19:03.238Z,7.74
2023-04-07T10:21:39.529Z,7.58
2023-04-07T10:24:23.197Z,7.19
2023-04-07T10:26:57.907Z,7.28
2023-04-07T10:29:31.544Z,7.48
2023-04-07T10:32:04.710Z,7.12
2023-04-07T10:34:58.040Z,7.41
2023-04-07T10:37:30.076Z,7.50
2023-04-07T10:40:24.683Z,7.92
2023-04-07T10:42:56.812Z,7.52
2023-04-07T10:45:49.960Z,7.51
2023-04-07T10:48:21.927Z,7.58
2023-04-07T10:51:15.927Z,7.82
2023-04-07T10:53:58.090Z,7.92
2023-04-07T10:56:30.120Z,8.20
2023-04-07T10:59:09.934Z,8.08
2023-04-07T11:01:40.945Z,7.80
2023-04-07T11:04:11.581Z,7.76
2023-04-07T11:06:51.173Z,7.74
2023-04-07T11:09:23.095Z,7.07
2023-04-07T11:11:53.718Z,6.73
2023-04-07T11:14:33.091Z,6.55
2023-04-07T11:17:05.402Z,6.65
2023-04-07T11:19:39.001Z,6.70
2023-04-07T11:22:29.297Z,6.92
2023-04-07T11:24:49.601Z,6.84
2023-04-07T11:27:21.695Z,6.80
2023-04-07T11:29:52.628Z,7.02
2023-04-07T11:32:27.940Z,7.22
2023-04-07T11:35:01.371Z,7.16
2023-04-07T11:37:31.863Z,7.00
2023-04-07T11:40:02.448Z,6.67
2023-04-07T11:42:34.363Z,6.58
2023-04-07T11:45:08.523Z,6.92
2023-04-07T11:47:42.027Z,6.90
2023-04-07T11:50:14.334Z,6.71
2023-04-07T11:52:49.899Z,6.34
2023-04-07T11:55:27.195Z,6.18
2023-04-07T11:58:01.921Z,6.21
2023-04-07T12:00:32.513Z,6.29
2023-04-07T12:03:16.886Z,6.18
2023-04-07T12:05:49.598Z,6.25
2023-04-07T12:08:21.292Z,6.24
2023-04-07T12:10:54.886Z,6.23
2023-04-07T12:13:26.524Z,6.16
2023-04-07T12:15:57.802Z,6.32
2023-04-07T12:18:30.284Z,6.45
2023-04-07T12:21:01.443Z,6.55
2023-04-07T12:23:32.086Z,6.72
2023-04-07T12:26:06.094Z,6.48
2023-04-07T12:28:38.047Z,6.32
2023-04-07T12:31:08.607Z,6.22
2023-04-07T12:33:39.352Z,6.22
2023-04-07T12:36:10.328Z,6.19
2023-04-07T12:38:40.836Z,5.97
2023-04-07T12:41:11.548Z,5.98
2023-04-07T12:43:42.229Z,6.03
2023-04-07T12:46:13.296Z,6.26
2023-04-07T12:48:45.852Z,6.18
2023-04-07T12:51:16.781Z,6.40
2023-04-07T12:53:48.800Z,6.22
2023-04-07T12:56:20.485Z,6.21
2023-04-07T12:58:51.206Z,6.16
2023-04-07T13:01:22.790Z,5.83
2023-04-07T13:03:54.968Z,6.06
2023-04-07T13:06:25.564Z,6.15
2023-04-07T13:08:56.559Z,6.14
2023-04-07T13:11:27.535Z,6.38
2023-04-07T13:14:00.541Z,6.70
2023-04-07T13:16:31.109Z,6.74
2023-04-07T13:19:02.570Z,6.76
2023-04-07T13:24:06.552Z,6.88
2023-04-07T13:26:38.804Z,6.89
2023-04-07T13:29:10.400Z,6.63
2023-04-07T13:31:42.632Z,6.80
2023-04-07T13:34:14.658Z,6.43
2023-04-07T13:36:46.434Z,6.42
2023-04-07T13:39:19.331Z,6.14
2023-04-07T13:41:49.998Z,6.00
2023-04-07T13:44:25.618Z,6.00
2023-04-07T13:46:58.197Z,6.44
2023-04-07T13:49:29.324Z,6.51
2023-04-07T13:52:01.401Z,6.27
2023-04-07T13:54:32.075Z,6.43
2023-04-07T13:57:02.809Z,6.42
2023-04-07T13:59:33.471Z,6.23
2023-04-07T14:02:07.358Z,6.24
2023-04-07T14:04:39.094Z,6.28
2023-04-07T14:07:09.770Z,6.25
2023-04-07T14:09:40.955Z,6.54
2023-04-07T14:12:13.269Z,6.42
2023-04-07T14:14:45.749Z,6.40
2023-04-07T14:17:18.036Z,6.25
2023-04-07T14:19:49.844Z,6.34
2023-04-07T14:22:22.702Z,6.28
2023-04-07T14:24:53.257Z,6.36
2023-04-07T14:27:24.209Z,6.65
2023-04-07T14:29:56.517Z,6.72
2023-04-07T14:32:30.414Z,6.45
2023-04-07T14:35:02.670Z,6.43
2023-04-07T14:37:33.275Z,6.40
2023-04-07T14:40:09.057Z,6.11
2023-04-07T14:42:41.169Z,6.19
2023-04-07T14:45:12.967Z,5.91
2023-04-07T14:47:48.901Z,6.02
2023-04-07T14:50:17.686Z,5.98
2023-04-07T14:52:48.220Z,5.86
2023-04-07T14:55:20.989Z,6.02
2023-04-07T14:57:53.904Z,6.02
2023-04-07T15:00:26.193Z,6.03
2023-04-07T15:02:58.454Z,6.13
2023-04-07T15:05:31.001Z,6.14
2023-04-07T15:08:02.974Z,6.12
2023-04-07T15:10:35.628Z,6.08
2023-04-07T15:13:11.984Z,6.10
2023-04-07T15:15:44.494Z,6.20
2023-04-07T15:18:23.536Z,5.92
2023-04-07T15:20:53.286Z,5.94
2023-04-07T15:23:24.283Z,5.74
2023-04-07T15:25:56.533Z,5.86
2023-04-07T15:28:31.144Z,6.02
2023-04-07T15:31:02.102Z,5.92
2023-04-07T15:33:33.277Z,5.96
2023-04-07T15:36:06.371Z,5.68
2023-04-07T15:38:39.158Z,5.70
2023-04-07T15:41:10.087Z,5.77
2023-04-07T15:43:40.653Z,5.64
2023-04-07T15:46:12.506Z,5.76
2023-04-07T15:48:44.545Z,5.68
2023-04-07T15:51:17.002Z,5.84
2023-04-07T15:53:47.826Z,5.90
2023-04-07T15:56:20.011Z,5.78
2023-04-07T15:58:51.091Z,5.62
2023-04-07T16:01:23.180Z,5.73
2023-04-07T16:03:54.148Z,5.68
2023-04-07T16:06:25.048Z,5.60
2023-04-07T16:08:56.251Z,5.66
2023-04-07T16:11:27.786Z,5.64
2023-04-07T16:13:59.359Z,5.60
2023-04-07T16:16:32.522Z,5.56
2023-04-07T16:19:03.232Z,5.67
2023-04-07T16:21:33.810Z,5.66
2023-04-07T16:24:04.438Z,5.57
2023-04-07T16:26:37.134Z,5.58
2023-04-07T16:29:07.965Z,5.56
2023-04-07T16:31:38.637Z,5.64
2023-04-07T16:34:09.888Z,5.69
2023-04-07T16:36:40.992Z,5.76
2023-04-07T16:39:11.562Z,5.84
2023-04-07T16:41:42.026Z,5.88
2023-04-07T16:44:12.671Z,5.82
2023-04-07T16:46:44.549Z,5.92
2023-04-07T16:49:17.738Z,5.72
2023-04-07T16:51:48.229Z,5.69
2023-04-07T16:54:18.779Z,5.64
2023-04-07T16:56:50.498Z,5.68
2023-04-07T16:59:22.041Z,5.58
2023-04-07T17:01:53.308Z,5.55
2023-04-07T17:04:25.056Z,5.64
2023-04-07T17:06:56.026Z,5.72
2023-04-07T17:09:27.995Z,5.62
2023-04-07T17:11:58.722Z,5.65
2023-04-07T17:14:30.036Z,5.68
2023-04-07T17:17:01.646Z,5.62
2023-04-07T17:19:34.222Z,5.56
2023-04-07T17:22:05.196Z,5.49
2023-04-07T17:24:35.710Z,5.46
2023-04-07T17:27:06.731Z,5.50
2023-04-07T17:29:37.263Z,5.59
2023-04-07T17:32:07.949Z,5.62
2023-04-07T17:34:38.876Z,5.54
2023-04-07T17:37:09.472Z,5.48
2023-04-07T17:39:41.717Z,5.44
2023-04-07T17:42:12.149Z,5.43
2023-04-07T17:44:43.230Z,5.37
2023-04-07T17:47:16.785Z,5.47
2023-04-07T17:49:47.320Z,5.48
2023-04-07T17:52:19.193Z,5.49
2023-04-07T17:54:49.720Z,5.36
2023-04-07T17:57:21.931Z,5.52
2023-04-07T17:59:52.459Z,5.48
2023-04-07T18:02:23.711Z,5.44
2023-04-07T18:04:56.651Z,5.50
2023-04-07T18:07:29.538Z,5.58
2023-04-07T18:10:00.101Z,5.62
2023-04-07T18:12:31.924Z,5.46
2023-04-07T18:15:07.366Z,5.56
2023-04-07T18:17:38.192Z,5.48
2023-04-07T18:20:11.432Z,5.52
2023-04-07T18:22:42.583Z,5.48
2023-04-07T18:25:13.862Z,5.49
2023-04-07T18:27:46.453Z,5.47
2023-04-07T18:30:17.126Z,5.42
2023-04-07T18:32:49.425Z,5.44
2023-04-07T18:35:21.454Z,5.39
2023-04-07T18:37:52.081Z,5.45
2023-04-07T18:40:22.695Z,5.38
2023-04-07T18:42:56.050Z,5.38
2023-04-07T18:45:29.752Z,5.60
2023-04-07T18:48:01.780Z,5.51
2023-04-07T18:50:33.601Z,5.43
2023-04-07T18:53:06.933Z,5.68
2023-04-07T18:55:39.018Z,5.53
2023-04-07T18:58:12.036Z,5.60
2023-04-07T19:00:44.505Z,5.68
2023-04-07T19:03:16.703Z,5.48
2023-04-07T19:05:47.998Z,5.48
2023-04-07T19:08:20.000Z,5.32
2023-04-07T19:10:52.233Z,5.46
2023-04-07T19:13:24.329Z,5.38
2023-04-07T19:15:56.575Z,5.48
2023-04-07T19:18:29.024Z,5.34
2023-04-07T19:21:02.321Z,5.34
2023-04-07T19:23:32.824Z,5.31
2023-04-07T19:26:04.574Z,5.32
2023-04-07T19:28:35.176Z,5.18
2023-04-07T19:31:10.916Z,5.25
2023-04-07T19:33:41.532Z,5.16
2023-04-07T19:36:12.293Z,5.22
2023-04-07T19:38:42.922Z,5.22
2023-04-07T19:41:15.052Z,5.24
2023-04-07T19:43:45.464Z,5.20
2023-04-07T19:46:16.521Z,5.26
2023-04-07T19:48:47.493Z,5.20
2023-04-07T19:51:18.166Z,5.28
2023-04-07T19:53:49.713Z,5.26
2023-04-07T19:56:20.361Z,5.18
2023-04-07T19:58:51.168Z,5.22
2023-04-07T20:01:21.878Z,5.28
2023-04-07T20:03:53.908Z,5.26
2023-04-07T20:06:26.124Z,5.28
2023-04-07T20:08:58.436Z,5.29
2023-04-07T20:11:30.255Z,5.36
2023-04-07T20:14:02.906Z,5.22
2023-04-07T20:16:33.920Z,5.14
2023-04-07T20:19:05.864Z,5.26
2023-04-07T20:21:37.630Z,5.26
2023-04-07T20:24:08.698Z,5.23
2023-04-07T20:26:39.443Z,5.30
2023-04-07T20:29:10.414Z,5.20
2023-04-07T20:31:42.540Z,5.34
2023-04-07T20:34:13.169Z,5.27
2023-04-07T20:36:43.756Z,5.28
2023-04-07T20:39:14.254Z,5.30
2023-04-07T20:41:45.635Z,5.19
2023-04-07T20:44:17.931Z,5.24
2023-04-07T20:46:48.539Z,5.18
2023-04-07T20:49:20.029Z,5.32
2023-04-07T20:51:52.046Z,5.26
2023-04-07T20:54:24.165Z,5.24
2023-04-07T20:56:54.991Z,5.26
2023-04-07T20:59:25.606Z,5.30
2023-04-07T21:01:59.231Z,5.40
2023-04-07T21:04:29.855Z,5.34
2023-04-07T21:07:03.805Z,5.30
2023-04-07T21:09:34.614Z,5.28
2023-04-07T21:12:05.714Z,5.29
2023-04-07T21:14:36.486Z,5.24
2023-04-07T21:17:07.406Z,5.40
2023-04-07T21:19:38.146Z,5.31
2023-04-07T21:22:08.698Z,5.49
2023-04-07T21:24:39.775Z,5.38
2023-04-07T21:27:10.730Z,5.38
2023-04-07T21:29:44.223Z,5.35
2023-04-07T21:32:15.436Z,5.34
2023-04-07T21:34:47.588Z,5.32
2023-04-07T21:37:18.116Z,5.33
2023-04-07T21:39:54.749Z,5.33
2023-04-07T21:42:25.819Z,5.33
2023-04-07T21:44:58.161Z,5.33
2023-04-07T21:47:28.721Z,5.32
2023-04-07T21:50:00.515Z,5.32
2023-04-07T21:52:31.076Z,5.40
2023-04-07T21:55:02.967Z,5.38
2023-04-07T21:57:35.195Z,5.44
2023-04-07T22:00:07.256Z,5.54
2023-04-07T22:02:37.973Z,5.44
2023-04-07T22:05:10.033Z,5.38
2023-04-07T22:07:41.225Z,5.35
2023-04-07T22:10:12.129Z,5.24
2023-04-07T22:12:44.261Z,5.32
2023-04-07T22:15:15.092Z,5.35
2023-04-07T22:17:47.385Z,5.34
2023-04-07T22:20:17.954Z,5.26
2023-04-07T22:22:48.602Z,5.29
2023-04-07T22:25:19.821Z,5.30
2023-04-07T22:27:52.541Z,5.30
2023-04-07T22:30:24.757Z,5.34
2023-04-07T22:32:55.342Z,5.38
2023-04-07T22:35:28.220Z,5.32
2023-04-07T22:38:01.167Z,5.30
2023-04-07T22:40:32.196Z,5.34
2023-04-07T22:43:07.350Z,5.27
2023-04-07T22:45:37.853Z,5.25
2023-04-07T22:48:10.100Z,5.31
2023-04-07T22:50:40.704Z,5.30
2023-04-07T22:53:14.959Z,5.38
2023-04-07T22:55:57.746Z,5.33
2023-04-07T22:58:28.328Z,5.36
2023-04-07T23:00:59.910Z,5.44
2023-04-07T23:03:32.047Z,5.41
2023-04-07T23:06:02.866Z,5.50
2023-04-07T23:08:33.334Z,5.40
2023-04-07T23:11:03.886Z,5.42
2023-04-07T23:13:34.374Z,5.42
2023-04-07T23:16:06.359Z,5.24
2023-04-07T23:18:37.025Z,5.32
2023-04-07T23:21:08.135Z,5.38
2023-04-07T23:23:39.074Z,5.34
2023-04-07T23:26:09.813Z,5.42
2023-04-07T23:28:40.553Z,5.40
2023-04-07T23:31:11.497Z,5.48
2023-04-07T23:33:42.019Z,5.39
2023-04-07T23:36:14.181Z,5.42
2023-04-07T23:38:46.892Z,5.48
2023-04-07T23:41:17.600Z,5.40
2023-04-07T23:43:48.217Z,5.42
2023-04-07T23:46:18.849Z,5.44
2023-04-07T23:48:50.762Z,5.33
2023-04-07T23:51:23.192Z,5.39
2023-04-07T23:53:55.567Z,5.33
2023-04-07T23:56:27.344Z,5.36
2023-04-07T23:58:58.067Z,5.32
